Terminal Aerodrome Forecast
Issued by NWS Greer, SC

Home | Current Version | Previous Version | Text Only | Print | Product List | Glossary On
Versions: 1 2 3 4 5 6 7 8 9 10 11 12 13 14 15
000
FTUS42 KGSP 221700
TAFGSP
TAF
KGSP 221738Z 2218/2318 26006KT P6SM SCT060
     FM230100 33004KT P6SM VCTS BKN050CB
     FM230600 00000KT P6SM SCT060
     FM231400 34005KT P6SM BKN060=

USA.gov is the U.S. government's official web portal to all federal, state and local government web resources and services.